Terminal Aerodrome Forecast
Issued by NWS Sioux Falls, SD

Home | Current Version | Previous Version | Text Only | Print | Product List | Glossary On
Versions: 1 2 3 4 5 6 7 8 9 10 11 12 13 14 15 16 17 18 19 20
000
FTUS43 KFSD 281123
TAFHON
TAF
KHON 281123Z 2812/2912 32007KT P6SM FEW070
     FM281600 34013G18KT P6SM FEW060
     FM290100 34008KT P6SM SKC
     FM290400 30004KT P6SM SKC=

USA.gov is the U.S. government's official web portal to all federal, state and local government web resources and services.